Air Navigation Services of Czech Republic
Airport: LKTB Updated:  20.09.2021 17:30:28  UTC
 METAR LKTB 20.09. 17:30 ...
METAR LKTB 201730Z 07004KT 9999 SCT033 13/06 Q1021 NOSIG RMK REG QNH 1017=
 TAF LKTB 20.09. 17:00 ...
TAF LKTB 201700Z 2018/2200 01006KT 9999 SCT036      PROB30 TEMPO 2100/2107 5000 BR BKN013=